Time;durP1;ratioP1;P1;durP2;ratioP2;P2;SDS_P1;SDS_P2;PMS_P1;PMS_P2;Temp;Humidity;BMP_temperature;BMP_pressure;BME280_temperature;BME280_humidity;BME280_pressure;Samples;Min_cycle;Max_cycle;Signal;HPM_P1;HPM_P2
2024/01/06 00:01:13;;;;;;;55.60;28.02;;;;;;;1.59;100.00;99924.38;7396722;19;20010;-69
2024/01/06 00:03:39;;;;;;;53.75;27.98;;;;;;;1.58;100.00;99928.72;7396447;19;20025;-69
2024/01/06 00:06:08;;;;;;;62.75;31.17;;;;;;;1.61;100.00;99920.09;7398747;19;20007;-69
2024/01/06 00:08:39;;;;;;;54.38;27.98;;;;;;;1.61;100.00;99920.09;7399160;19;20027;-70
2024/01/06 00:11:08;;;;;;;56.80;29.20;;;;;;;1.61;100.00;99922.69;7399459;19;20111;-70
2024/01/06 00:13:36;;;;;;;57.00;29.70;;;;;;;1.62;100.00;99927.00;7396713;19;20010;-70
2024/01/06 00:16:05;;;;;;;58.72;29.08;;;;;;;1.63;100.00;99920.94;7396746;19;20385;-70
2024/01/06 00:18:33;;;;;;;52.92;28.20;;;;;;;1.62;100.00;99920.09;7398908;19;20022;-70
2024/01/06 00:21:02;;;;;;;56.78;29.48;;;;;;;1.62;100.00;99912.34;7396197;19;20015;-70
2024/01/06 00:23:37;;;;;;;52.97;28.50;;;;;;;1.62;100.00;99917.50;7397709;19;20018;-70
2024/01/06 00:26:08;;;;;;;58.33;29.50;;;;;;;1.62;100.00;99921.81;7395923;19;20015;-69
2024/01/06 00:28:36;;;;;;;55.15;27.65;;;;;;;1.62;100.00;99927.00;7399077;19;20018;-70
2024/01/06 00:31:05;;;;;;;60.92;29.88;;;;;;;1.62;100.00;99930.44;7396283;19;20014;-70
2024/01/06 00:33:34;;;;;;;53.88;28.90;;;;;;;1.61;100.00;99923.53;7395808;19;20011;-70
2024/01/06 00:36:02;;;;;;;58.33;29.73;;;;;;;1.63;100.00;99920.94;7398306;19;20014;-70
2024/01/06 00:38:31;;;;;;;54.40;29.60;;;;;;;1.63;100.00;99937.34;7395760;19;20477;-70
2024/01/06 00:40:59;;;;;;;55.85;30.00;;;;;;;1.63;100.00;99946.81;7398093;19;20023;-70
2024/01/06 00:43:30;;;;;;;54.63;29.60;;;;;;;1.63;100.00;99945.09;7397134;19;20014;-70
2024/01/06 00:45:59;;;;;;;62.10;30.23;;;;;;;1.63;100.00;99933.88;7395829;19;20371;-70
2024/01/06 00:48:27;;;;;;;59.85;28.90;;;;;;;1.63;100.00;99939.94;7397959;19;20078;-70
2024/01/06 00:50:55;;;;;;;63.08;29.40;;;;;;;1.63;100.00;99936.47;7397335;19;20477;-70
2024/01/06 00:53:24;;;;;;;54.85;28.70;;;;;;;1.62;100.00;99935.59;7396975;19;20018;-70
2024/01/06 00:55:53;;;;;;;55.95;27.88;;;;;;;1.61;100.00;99943.38;7397222;19;20477;-70
2024/01/06 00:58:21;;;;;;;58.33;29.27;;;;;;;1.59;100.00;99945.97;7395731;19;20018;-67
2024/01/06 01:00:52;;;;;;;61.72;30.02;;;;;;;1.58;100.00;99953.69;7395124;19;20143;-69
2024/01/06 01:03:21;;;;;;;58.50;28.38;;;;;;;1.59;100.00;99955.41;7396338;19;20027;-67
2024/01/06 01:05:49;;;;;;;59.60;29.38;;;;;;;1.57;100.00;99960.59;7395376;19;20014;-68
2024/01/06 01:08:24;;;;;;;60.03;29.65;;;;;;;1.58;100.00;99958.84;7397202;19;20019;-69
2024/01/06 01:10:53;;;;;;;60.45;27.38;;;;;;;1.58;100.00;99964.03;7395139;19;20015;-69
2024/01/06 01:13:21;;;;;;;55.58;27.45;;;;;;;1.56;100.00;99958.88;7394771;19;20023;-69
2024/01/06 01:15:52;;;;;;;58.72;27.25;;;;;;;1.54;100.00;99964.88;7395089;19;20082;-68
2024/01/06 01:18:21;;;;;;;61.25;26.30;;;;;;;1.53;100.00;99965.75;7396483;19;20010;-69
2024/01/06 01:20:49;;;;;;;56.67;26.85;;;;;;;1.50;100.00;99963.16;7395037;19;20015;-67
2024/01/06 01:23:18;;;;;;;57.58;26.50;;;;;;;1.50;100.00;99970.91;7395701;19;20474;-69
2024/01/06 01:25:46;;;;;;;60.15;27.45;;;;;;;1.50;100.00;99970.91;7394255;19;20023;-68
2024/01/06 01:28:15;;;;;;;57.42;27.73;;;;;;;1.50;100.00;99968.34;7396141;19;20481;-69
2024/01/06 01:30:44;;;;;;;58.83;28.63;;;;;;;1.49;100.00;99966.59;7394810;19;20031;-68
2024/01/06 01:33:15;;;;;;;67.30;28.60;;;;;;;1.48;100.00;99970.03;7395865;19;20014;-68
2024/01/06 01:35:44;;;;;;;59.40;26.58;;;;;;;1.46;100.00;99978.66;7394276;19;20423;-69
2024/01/06 01:38:12;;;;;;;65.63;27.83;;;;;;;1.46;100.00;99975.22;7394551;19;20031;-68
2024/01/06 01:40:40;;;;;;;70.38;28.25;;;;;;;1.44;100.00;99964.88;7394104;19;20032;-69
2024/01/06 01:43:18;;;;;;;62.97;29.20;;;;;;;1.44;100.00;99976.91;7393714;19;20014;-69
2024/01/06 01:45:50;;;;;;;62.05;27.90;;;;;;;1.44;100.00;99972.63;7394472;19;20424;-69
2024/01/06 01:48:22;;;;;;;65.53;28.88;;;;;;;1.43;100.00;99976.06;7396373;19;20082;-68
2024/01/06 01:50:51;;;;;;;66.45;29.83;;;;;;;1.43;100.00;99981.25;7396179;19;20014;-67
2024/01/06 01:53:20;;;;;;;84.68;29.02;;;;;;;1.41;100.00;99975.19;7395094;19;20018;-67
2024/01/06 01:55:50;;;;;;;64.35;27.63;;;;;;;1.40;100.00;99977.78;7395731;19;20368;-67
2024/01/06 01:58:19;;;;;;;61.40;28.65;;;;;;;1.39;100.00;99987.25;7396217;19;20023;-69
2024/01/06 02:00:48;;;;;;;65.90;29.42;;;;;;;1.39;100.00;99981.22;7395503;19;20024;-68
2024/01/06 02:03:16;;;;;;;61.80;28.77;;;;;;;1.39;100.00;99981.22;7394878;19;20078;-68
2024/01/06 02:05:47;;;;;;;67.35;27.38;;;;;;;1.40;100.00;99978.66;7393946;19;20385;-68
2024/01/06 02:08:16;;;;;;;71.80;27.60;;;;;;;1.41;100.00;99980.34;7395780;19;20027;-68
2024/01/06 02:10:44;;;;;;;69.40;30.92;;;;;;;1.41;100.00;99985.53;7395379;19;20011;-69
2024/01/06 02:13:13;;;;;;;82.47;27.58;;;;;;;1.40;100.00;99985.53;7395020;19;20006;-69
2024/01/06 02:15:42;;;;;;;81.13;28.52;;;;;;;1.38;100.00;99992.41;7395831;19;20011;-69
2024/01/06 02:18:11;;;;;;;73.88;26.10;;;;;;;1.36;100.00;99996.72;7395082;19;20077;-68
2024/01/06 02:20:40;;;;;;;116.00;30.15;;;;;;;1.34;100.00;99998.44;7394532;19;20474;-69
2024/01/06 02:23:11;;;;;;;91.15;28.30;;;;;;;1.31;100.00;99991.53;7394486;19;20018;-68
2024/01/06 02:25:39;;;;;;;94.88;28.27;;;;;;;1.30;100.00;99998.44;7393061;19;20018;-68
2024/01/06 02:28:08;;;;;;;73.85;28.88;;;;;;;1.32;100.00;99995.00;7394851;19;20090;-68
2024/01/06 02:30:36;;;;;;;69.45;28.90;;;;;;;1.32;100.00;99995.00;7394407;19;20015;-68
2024/01/06 02:33:05;;;;;;;70.18;28.52;;;;;;;1.32;100.00;99997.56;7394240;19;20015;-68
2024/01/06 02:35:34;;;;;;;99.13;30.40;;;;;;;1.32;100.00;100000.16;7394656;19;20024;-68
2024/01/06 02:38:02;;;;;;;79.70;30.42;;;;;;;1.34;100.00;99995.84;7394678;19;20031;-68
2024/01/06 02:40:33;;;;;;;69.22;28.80;;;;;;;1.35;100.00;99995.00;7394117;19;20498;-68
2024/01/06 02:43:02;;;;;;;76.75;28.50;;;;;;;1.34;100.00;99999.31;7393632;19;20393;-68
2024/01/06 02:45:30;;;;;;;76.38;31.23;;;;;;;1.35;100.00;100003.59;7393416;19;20019;-68
2024/01/06 02:47:59;;;;;;;70.97;29.00;;;;;;;1.34;100.00;100001.91;7394381;19;20091;-67
2024/01/06 02:50:27;;;;;;;87.05;30.27;;;;;;;1.33;100.00;100005.31;7394266;19;20018;-67
2024/01/06 02:52:56;;;;;;;77.03;29.45;;;;;;;1.27;100.00;99992.38;7393385;19;20376;-68
2024/01/06 02:55:24;;;;;;;74.40;31.17;;;;;;;1.32;100.00;100013.94;7401650;19;20015;-67
2024/01/06 02:57:56;;;;;;;93.57;32.45;;;;;;;1.32;100.00;100016.50;7401597;19;20014;-68
2024/01/06 03:00:25;;;;;;;80.13;30.35;;;;;;;1.33;100.00;100017.38;7401910;19;20035;-67
2024/01/06 03:02:53;;;;;;;75.35;31.35;;;;;;;1.35;100.00;100026.00;7400423;19;20533;-67
2024/01/06 03:05:22;;;;;;;90.82;33.28;;;;;;;1.36;100.00;100014.81;7400350;19;20082;-67
2024/01/06 03:07:50;;;;;;;80.68;31.90;;;;;;;1.36;100.00;100030.31;7400961;19;20380;-67
2024/01/06 03:10:19;;;;;;;87.15;32.47;;;;;;;1.37;100.00;100030.31;7400702;19;20027;-67
2024/01/06 03:12:47;;;;;;;80.95;32.25;;;;;;;1.37;100.00;100025.16;7400698;19;20023;-67
2024/01/06 03:15:19;;;;;;;116.18;32.10;;;;;;;1.37;100.00;100025.16;7400982;19;20023;-67
2024/01/06 03:17:47;;;;;;;89.25;30.60;;;;;;;1.38;100.00;100024.31;7400668;19;20018;-67
2024/01/06 03:20:15;;;;;;;86.10;30.85;;;;;;;1.38;100.00;100026.00;7400767;19;20018;-67
2024/01/06 03:22:44;;;;;;;88.40;30.77;;;;;;;1.37;100.00;100032.91;7400479;19;20018;-68
2024/01/06 03:25:13;;;;;;;85.75;32.20;;;;;;;1.37;100.00;100038.06;7399574;19;20018;-67
2024/01/06 03:27:41;;;;;;;126.80;31.05;;;;;;;1.37;100.00;100038.06;7400887;19;20028;-68
2024/01/06 03:30:11;;;;;;;79.63;29.60;;;;;;;1.36;100.00;100038.94;7400067;19;20023;-68
2024/01/06 03:32:42;;;;;;;89.78;30.45;;;;;;;1.35;100.00;100047.53;7399876;19;20011;-67
2024/01/06 03:35:11;;;;;;;78.45;28.90;;;;;;;1.34;100.00;100045.84;7399924;19;20486;-67
2024/01/06 03:37:39;;;;;;;89.38;30.35;;;;;;;1.32;100.00;100042.38;7399828;19;20026;-68
2024/01/06 03:40:09;;;;;;;83.80;27.63;;;;;;;1.32;100.00;100051.84;7400077;19;20023;-68
2024/01/06 03:42:38;;;;;;;97.85;30.35;;;;;;;1.30;100.00;100054.41;7399771;19;20018;-67
2024/01/06 03:45:07;;;;;;;84.93;29.85;;;;;;;1.28;100.00;100059.56;7399199;19;20009;-68
2024/01/06 03:47:36;;;;;;;99.57;29.60;;;;;;;1.29;100.00;100063.03;7399922;19;20018;-67
2024/01/06 03:50:07;;;;;;;84.03;28.13;;;;;;;1.29;100.00;100066.47;7399865;19;20025;-68
2024/01/06 03:52:36;;;;;;;76.35;29.65;;;;;;;1.30;100.00;100064.75;7399242;19;20006;-67
2024/01/06 03:55:05;;;;;;;104.15;27.75;;;;;;;1.29;100.00;100065.63;7399604;19;20010;-68
2024/01/06 03:57:33;;;;;;;78.57;27.67;;;;;;;1.28;100.00;100062.16;7399234;19;20007;-68
2024/01/06 04:00:02;;;;;;;94.28;28.55;;;;;;;1.28;100.00;100063.88;7399457;19;20023;-68
2024/01/06 04:02:31;;;;;;;85.25;27.88;;;;;;;1.27;100.00;100060.41;7399377;19;20011;-68
2024/01/06 04:04:59;;;;;;;81.63;30.38;;;;;;;1.26;100.00;100063.88;7398747;19;20027;-68
2024/01/06 04:07:30;;;;;;;81.63;29.25;;;;;;;1.26;100.00;100069.06;7399237;19;20023;-68
2024/01/06 04:09:59;;;;;;;120.30;29.83;;;;;;;1.26;100.00;100065.59;7399487;19;20027;-68
2024/01/06 04:12:27;;;;;;;117.13;30.50;;;;;;;1.26;100.00;100063.00;7399046;19;20082;-68
2024/01/06 04:14:56;;;;;;;123.65;31.23;;;;;;;1.25;100.00;100074.19;7397769;19;20011;-68
2024/01/06 04:17:26;;;;;;;109.15;30.92;;;;;;;1.25;100.00;100069.03;7399049;19;20031;-67
2024/01/06 04:19:54;;;;;;;81.40;29.13;;;;;;;1.24;100.00;100080.22;7398507;19;20078;-67
2024/01/06 04:22:23;;;;;;;81.00;27.38;;;;;;;1.24;100.00;100082.78;7398762;19;20011;-68
2024/01/06 04:24:54;;;;;;;107.70;30.90;;;;;;;1.22;100.00;100061.25;7396231;19;20032;-67
2024/01/06 04:27:22;;;;;;;103.05;29.88;;;;;;;1.25;100.00;100080.25;7396863;19;20031;-68
2024/01/06 04:29:52;;;;;;;88.00;29.92;;;;;;;1.27;100.00;100085.41;7398441;19;20031;-68
2024/01/06 04:32:21;;;;;;;87.43;29.83;;;;;;;1.27;100.00;100085.41;7398154;19;20010;-68
2024/01/06 04:34:49;;;;;;;94.22;31.65;;;;;;;1.27;100.00;100085.41;7395866;19;20010;-68
2024/01/06 04:37:18;;;;;;;85.38;29.40;;;;;;;1.29;100.00;100083.72;7398303;19;20015;-68
2024/01/06 04:39:46;;;;;;;90.43;29.77;;;;;;;1.28;100.00;100082.84;7398060;19;20014;-68
2024/01/06 04:42:19;;;;;;;98.88;30.30;;;;;;;1.29;100.00;100078.53;7397642;19;20494;-67
2024/01/06 04:44:48;;;;;;;108.13;31.80;;;;;;;1.29;100.00;100081.13;7395971;19;20021;-68
2024/01/06 04:47:16;;;;;;;109.28;29.65;;;;;;;1.29;100.00;100088.88;7395938;19;20120;-68
2024/01/06 04:49:44;;;;;;;104.85;28.98;;;;;;;1.27;100.00;100090.59;7397096;19;20486;-68
2024/01/06 04:52:13;;;;;;;86.47;28.38;;;;;;;1.26;100.00;100101.78;7397380;19;20006;-68
2024/01/06 04:54:41;;;;;;;87.85;28.80;;;;;;;1.22;100.00;100098.28;7395722;19;20073;-68
2024/01/06 04:57:10;;;;;;;84.93;27.73;;;;;;;1.20;100.00;100096.56;7397487;19;20078;-69
2024/01/06 04:59:41;;;;;;;83.43;25.30;;;;;;;1.22;100.00;100103.47;7397075;19;20087;-68
2024/01/06 05:02:10;;;;;;;100.95;28.50;;;;;;;1.21;100.00;100096.56;7397044;19;20079;-69
2024/01/06 05:04:38;;;;;;;88.82;28.23;;;;;;;1.20;100.00;100100.03;7395195;19;20086;-67
2024/01/06 05:07:07;;;;;;;111.97;35.65;;;;;;;1.20;100.00;100104.31;7395313;19;20542;-68
2024/01/06 05:09:35;;;;;;;92.93;31.05;;;;;;;1.19;100.00;100102.56;7397026;19;20077;-68
2024/01/06 05:12:04;;;;;;;95.45;28.92;;;;;;;1.20;100.00;100112.06;7397011;19;20010;-68
2024/01/06 05:14:32;;;;;;;90.95;28.63;;;;;;;1.20;100.00;100119.81;7395209;19;20032;-68
2024/01/06 05:17:04;;;;;;;95.25;28.88;;;;;;;1.19;100.00;100116.38;7395276;19;20507;-68
2024/01/06 05:19:32;;;;;;;109.60;29.83;;;;;;;1.20;100.00;100130.16;7398163;19;20108;-70
2024/01/06 05:22:01;;;;;;;87.60;28.63;;;;;;;1.19;100.00;100120.66;7399178;19;20542;-70
2024/01/06 05:24:26;;;;;;;93.32;30.58;;;;;;;1.18;100.00;100121.53;7397157;19;20014;-69
2024/01/06 05:26:55;;;;;;;97.40;29.38;;;;;;;1.18;100.00;100121.53;7395127;19;20021;-68
2024/01/06 05:29:25;;;;;;;85.05;29.45;;;;;;;1.19;100.00;100123.25;7396109;19;20077;-69
2024/01/06 05:31:54;;;;;;;107.85;30.95;;;;;;;1.20;100.00;100127.56;7396615;19;20014;-68
2024/01/06 05:34:25;;;;;;;90.18;31.02;;;;;;;1.20;100.00;100130.16;7395052;19;20032;-69
2024/01/06 05:36:54;;;;;;;103.47;32.08;;;;;;;1.21;100.00;100130.16;7396655;19;20018;-68
2024/01/06 05:39:22;;;;;;;103.80;31.95;;;;;;;1.21;100.00;100132.75;7396046;19;20017;-69
2024/01/06 05:41:50;;;;;;;105.22;31.95;;;;;;;1.22;100.00;100138.78;7396005;19;20078;-68
2024/01/06 05:44:19;;;;;;;123.10;32.28;;;;;;;1.22;100.00;100134.47;7394729;19;20018;-68
2024/01/06 05:46:47;;;;;;;92.80;31.20;;;;;;;1.21;100.00;100134.47;7395032;19;20073;-68
2024/01/06 05:49:16;;;;;;;100.72;30.13;;;;;;;1.19;100.00;100137.06;7395832;19;20450;-68
2024/01/06 05:51:49;;;;;;;103.43;31.02;;;;;;;1.18;100.00;100144.81;7395755;19;20007;-68
2024/01/06 05:54:18;;;;;;;98.53;31.92;;;;;;;1.18;100.00;100150.81;7394213;19;20031;-68
2024/01/06 05:56:46;;;;;;;113.78;31.80;;;;;;;1.18;100.00;100160.31;7395705;19;20035;-68
2024/01/06 05:59:15;;;;;;;97.78;31.95;;;;;;;1.18;100.00;100155.13;7395612;19;20070;-68
2024/01/06 06:01:43;;;;;;;95.25;29.95;;;;;;;1.17;100.00;100159.41;7395577;19;20090;-68
2024/01/06 06:04:12;;;;;;;100.22;31.63;;;;;;;1.18;100.00;100156.00;7394083;19;20035;-68
2024/01/06 06:06:41;;;;;;;86.93;29.85;;;;;;;1.17;100.00;100163.75;7394445;19;20078;-68
2024/01/06 06:09:12;;;;;;;93.38;30.50;;;;;;;1.18;100.00;100170.66;7394911;19;20494;-68
2024/01/06 06:11:41;;;;;;;86.80;30.10;;;;;;;1.17;100.00;100172.34;7395645;19;20081;-68
2024/01/06 06:14:09;;;;;;;94.60;32.88;;;;;;;1.17;100.00;100174.06;7393577;19;20086;-68
2024/01/06 06:16:39;;;;;;;96.90;34.22;;;;;;;1.16;100.00;100180.94;7395016;19;20022;-68
2024/01/06 06:19:07;;;;;;;94.45;32.28;;;;;;;1.15;100.00;100187.00;7395057;19;20027;-68
2024/01/06 06:21:43;;;;;;;96.32;32.97;;;;;;;1.16;100.00;100190.44;7395001;19;20018;-68
2024/01/06 06:24:14;;;;;;;94.90;33.13;;;;;;;1.14;100.00;100191.28;7393749;19;20017;-68
2024/01/06 06:26:42;;;;;;;97.43;34.55;;;;;;;1.15;100.00;100197.31;7392857;19;20035;-68
2024/01/06 06:29:11;;;;;;;104.68;34.95;;;;;;;1.15;100.00;100205.06;7398456;19;20027;-68
2024/01/06 06:31:39;;;;;;;111.57;35.10;;;;;;;1.14;100.00;100204.19;7402493;19;20031;-68
2024/01/06 06:34:08;;;;;;;94.60;34.20;;;;;;;1.12;100.00;100213.63;7401449;19;20018;-68
2024/01/06 06:36:36;;;;;;;105.70;34.72;;;;;;;1.10;100.00;100215.38;7402051;19;20021;-68
2024/01/06 06:39:05;;;;;;;87.00;31.52;;;;;;;1.09;100.00;100217.94;7402380;19;20023;-68
2024/01/06 06:41:36;;;;;;;87.35;31.20;;;;;;;1.09;100.00;100229.13;7401927;19;20031;-68
2024/01/06 06:44:04;;;;;;;99.93;32.15;;;;;;;1.08;100.00;100231.72;7399520;19;20031;-68
2024/01/06 06:46:33;;;;;;;100.07;33.95;;;;;;;1.05;100.00;100235.13;7400390;19;20588;-68
2024/01/06 06:49:02;;;;;;;91.10;32.83;;;;;;;1.05;100.00;100242.88;7401408;19;20021;-68
2024/01/06 06:51:30;;;;;;;95.40;32.70;;;;;;;1.05;100.00;100260.97;7401685;19;20012;-68
2024/01/06 06:53:59;;;;;;;92.22;33.83;;;;;;;1.01;100.00;100248.00;7399750;19;20019;-68
2024/01/06 06:56:27;;;;;;;91.30;31.80;;;;;;;1.01;100.00;100256.63;7401405;19;20010;-68
2024/01/06 06:58:58;;;;;;;92.13;34.83;;;;;;;1.00;100.00;100260.06;7401255;19;20035;-68
2024/01/06 07:01:27;;;;;;;92.25;33.90;;;;;;;1.01;100.00;100266.97;7401749;19;20073;-68
2024/01/06 07:03:56;;;;;;;91.97;34.50;;;;;;;1.00;100.00;100270.41;7399854;19;20023;-68
2024/01/06 07:06:24;;;;;;;96.68;35.38;;;;;;;1.01;100.00;100269.56;7400386;19;20015;-68
2024/01/06 07:08:59;;;;;;;95.70;34.70;;;;;;;1.01;100.00;100269.56;7400902;19;20083;-68
2024/01/06 07:11:28;;;;;;;104.28;37.25;;;;;;;1.01;100.00;100274.72;7400739;19;20014;-68
2024/01/06 07:13:59;;;;;;;109.00;38.97;;;;;;;0.99;100.00;100281.56;7399278;19;20014;-68
2024/01/06 07:16:27;;;;;;;110.30;37.63;;;;;;;0.98;100.00;100280.69;7400545;19;20514;-68
2024/01/06 07:18:56;;;;;;;117.72;39.08;;;;;;;0.97;100.00;100288.44;7400376;19;20062;-68
2024/01/06 07:21:25;;;;;;;104.63;38.90;;;;;;;0.96;100.00;100297.03;7400618;19;20382;-68
2024/01/06 07:23:53;;;;;;;96.30;36.38;;;;;;;0.95;100.00;100297.91;7398938;19;20010;-68
2024/01/06 07:26:22;;;;;;;99.18;38.05;;;;;;;0.90;100.00;100297.00;7397514;19;20078;-68
2024/01/06 07:28:50;;;;;;;102.30;38.08;;;;;;;0.88;100.00;100314.19;7397766;19;20083;-68
2024/01/06 07:31:21;;;;;;;101.80;39.20;;;;;;;0.88;100.00;100311.59;7397636;19;20018;-68
2024/01/06 07:33:50;;;;;;;104.60;38.67;;;;;;;0.88;100.00;100312.44;7396056;19;20482;-68
2024/01/06 07:36:18;;;;;;;105.78;38.95;;;;;;;0.88;100.00;100314.19;7397447;19;20019;-68
2024/01/06 07:38:47;;;;;;;109.07;40.50;;;;;;;0.88;100.00;100316.75;7396609;19;20022;-68
2024/01/06 07:41:15;;;;;;;104.65;38.95;;;;;;;0.86;100.00;100321.91;7396956;19;20074;-68
2024/01/06 07:43:44;;;;;;;103.68;38.72;;;;;;;0.85;100.00;100320.16;7396104;19;20024;-68
2024/01/06 07:46:12;;;;;;;94.85;38.28;;;;;;;0.86;100.00;100323.59;7396915;19;20432;-68
2024/01/06 07:48:44;;;;;;;88.88;36.72;;;;;;;0.85;100.00;100324.44;7396963;19;20595;-69
2024/01/06 07:51:12;;;;;;;96.03;37.30;;;;;;;0.84;100.00;100333.94;7397857;19;20084;-69
2024/01/06 07:53:41;;;;;;;93.25;37.40;;;;;;;0.83;100.00;100342.53;7395950;19;20091;-69
2024/01/06 07:56:09;;;;;;;99.65;38.33;;;;;;;0.83;100.00;100344.25;7397398;19;20010;-70
2024/01/06 07:58:38;;;;;;;103.35;39.55;;;;;;;0.82;100.00;100353.69;7396859;19;20427;-68
2024/01/06 08:01:06;;;;;;;94.50;37.25;;;;;;;0.83;100.00;100352.84;7396711;19;20086;-68
2024/01/06 08:03:35;;;;;;;95.15;37.47;;;;;;;0.84;100.00;100346.00;7395779;19;20077;-69
2024/01/06 08:06:07;;;;;;;91.63;37.83;;;;;;;0.87;100.00;100358.94;7396576;19;20086;-68
2024/01/06 08:08:35;;;;;;;92.00;37.20;;;;;;;0.87;100.00;100354.63;7394705;19;20431;-69
2024/01/06 08:11:04;;;;;;;92.63;35.20;;;;;;;0.86;100.00;100365.81;7396849;19;20019;-69
2024/01/06 08:13:32;;;;;;;87.55;37.60;;;;;;;0.84;100.00;100364.91;7395223;19;20553;-68
2024/01/06 08:16:01;;;;;;;87.97;35.97;;;;;;;0.82;100.00;100364.03;7396541;19;20027;-68
2024/01/06 08:18:29;;;;;;;94.32;38.65;;;;;;;0.81;100.00;100378.66;7396426;19;20010;-69
2024/01/06 08:20:58;;;;;;;91.35;37.70;;;;;;;0.81;100.00;100390.72;7396516;19;20015;-69
2024/01/06 08:23:29;;;;;;;99.80;39.22;;;;;;;0.79;100.00;100388.09;7394993;19;20490;-69
2024/01/06 08:26:05;;;;;;;92.15;37.67;;;;;;;0.77;100.00;100387.22;6262915;19;22223071;-69
2024/01/06 08:28:33;;;;;;;97.82;40.17;;;;;;;0.76;100.00;100394.97;7396322;19;20006;-69
2024/01/06 08:31:02;;;;;;;103.00;40.28;;;;;;;0.75;100.00;100398.41;7398156;19;20006;-69
2024/01/06 08:33:30;;;;;;;109.05;42.55;;;;;;;0.77;100.00;100409.59;7397465;19;20074;-69
2024/01/06 08:35:59;;;;;;;104.20;42.28;;;;;;;0.76;100.00;100400.13;7398203;19;20031;-69
2024/01/06 08:38:30;;;;;;;109.78;42.72;;;;;;;0.76;100.00;100403.56;7397775;19;20360;-69
2024/01/06 08:40:59;;;;;;;114.15;46.90;;;;;;;0.78;100.00;100403.59;7398195;19;20018;-69
2024/01/06 08:43:27;;;;;;;113.00;43.10;;;;;;;0.79;100.00;100403.59;7396981;19;20031;-69
2024/01/06 08:45:56;;;;;;;123.40;44.53;;;;;;;0.84;100.00;100410.56;7397597;19;20506;-69
2024/01/06 08:48:24;;;;;;;123.65;46.33;;;;;;;0.89;100.00;100407.16;7395880;19;20078;-68
2024/01/06 08:50:53;;;;;;;122.95;47.22;;;;;;;0.92;100.00;100419.25;7395835;19;20078;-69
2024/01/06 08:53:21;;;;;;;123.40;46.15;;;;;;;0.92;100.00;100422.72;7396961;19;20066;-69
2024/01/06 08:55:52;;;;;;;117.13;46.53;;;;;;;0.93;100.00;100429.59;7397277;19;20553;-69
2024/01/06 08:58:21;;;;;;;120.60;48.55;;;;;;;0.91;100.00;100430.44;7397006;19;20482;-68
2024/01/06 09:00:50;;;;;;;110.25;45.28;;;;;;;0.91;100.00;100438.19;7397293;19;20078;-69
2024/01/06 09:03:20;;;;;;;102.50;45.13;;;;;;;0.93;100.00;100436.50;7396244;19;20070;-69
2024/01/06 09:05:49;;;;;;;104.47;43.33;;;;;;;0.93;100.00;100428.75;7396457;19;20370;-69
2024/01/06 09:08:17;;;;;;;104.20;46.00;;;;;;;0.92;100.00;100445.09;7395479;19;20037;-70
2024/01/06 09:10:46;;;;;;;103.38;45.65;;;;;;;0.90;100.00;100442.50;7395063;19;20075;-68
2024/01/06 09:13:17;;;;;;;109.40;46.22;;;;;;;0.87;100.00;100446.75;7395734;19;20021;-70
2024/01/06 09:15:46;;;;;;;109.20;46.17;;;;;;;0.88;100.00;100446.75;7397137;19;20022;-70
2024/01/06 09:18:15;;;;;;;104.65;46.08;;;;;;;0.88;100.00;100445.91;7394274;19;20375;-70
2024/01/06 09:20:43;;;;;;;106.20;45.95;;;;;;;0.87;100.00;100447.59;7396247;19;20517;-69
2024/01/06 09:23:12;;;;;;;115.47;47.88;;;;;;;0.88;100.00;100451.06;7396120;19;20070;-69
2024/01/06 09:25:49;;;;;;;108.03;44.30;;;;;;;0.88;100.00;100459.66;7396107;19;20010;-67
2024/01/06 09:28:21;;;;;;;103.35;44.60;;;;;;;0.83;100.00;100453.59;7395747;19;20018;-70
2024/01/06 09:30:52;;;;;;;107.22;45.78;;;;;;;0.86;100.00;100457.91;7396529;19;20014;-70
2024/01/06 09:33:20;;;;;;;110.57;44.90;;;;;;;0.84;100.00;100457.91;7395779;19;20070;-69
2024/01/06 09:35:55;;;;;;;111.50;46.78;;;;;;;0.85;100.00;100462.22;7395861;19;20074;-69
2024/01/06 09:38:24;;;;;;;111.47;44.72;;;;;;;0.86;100.00;100471.72;7395843;19;20074;-69
2024/01/06 09:40:53;;;;;;;111.00;47.08;;;;;;;0.85;100.00;100471.69;7395513;19;20510;-70
2024/01/06 09:43:25;;;;;;;113.30;46.35;;;;;;;0.87;100.00;100477.75;7395023;19;20098;-70
2024/01/06 09:46:02;;;;;;;115.93;47.50;;;;;;;0.85;100.00;100482.91;7395426;19;20017;-69
2024/01/06 09:48:33;;;;;;;110.32;47.60;;;;;;;0.86;100.00;100496.66;7394300;19;20010;-69
2024/01/06 09:51:06;;;;;;;112.97;46.95;;;;;;;0.85;100.00;100508.72;7396030;19;20024;-69
2024/01/06 09:53:37;;;;;;;114.53;46.75;;;;;;;0.84;100.00;100512.16;7394513;19;20011;-69
2024/01/06 09:56:07;;;;;;;111.72;48.10;;;;;;;0.83;100.00;100517.28;7395251;19;20021;-68
2024/01/06 09:58:41;;;;;;;118.93;47.35;;;;;;;0.80;100.00;100502.63;7395221;19;20027;-69
2024/01/06 10:01:10;;;;;;;111.78;46.95;;;;;;;0.79;100.00;100504.31;7395172;19;20385;-68
2024/01/06 10:03:39;;;;;;;117.22;50.08;;;;;;;0.76;100.00;100496.53;7393767;19;20014;-68
2024/01/06 10:06:09;;;;;;;126.38;49.42;;;;;;;0.77;100.00;100500.88;7395400;19;20020;-70
2024/01/06 10:08:40;;;;;;;115.80;47.08;;;;;;;0.77;100.00;100499.97;7394132;19;20032;-71
2024/01/06 10:11:09;;;;;;;133.27;50.13;;;;;;;0.75;100.00;100497.38;7394928;19;20498;-70
2024/01/06 10:13:40;;;;;;;123.55;49.28;;;;;;;0.75;100.00;100505.13;7394142;19;20014;-70
2024/01/06 10:16:09;;;;;;;112.10;46.85;;;;;;;0.75;100.00;100507.72;7395100;19;20074;-71
2024/01/06 10:18:44;;;;;;;119.43;46.42;;;;;;;0.73;100.00;100506.81;7394913;19;20014;-70
2024/01/06 10:21:13;;;;;;;113.93;49.28;;;;;;;0.74;100.00;100513.72;7394818;19;20082;-70
2024/01/06 10:23:42;;;;;;;121.20;48.50;;;;;;;0.75;100.00;100515.47;7394090;19;20356;-69
2024/01/06 10:26:15;;;;;;;117.55;48.20;;;;;;;0.77;100.00;100516.38;7393937;19;20014;-70
2024/01/06 10:28:46;;;;;;;127.32;51.15;;;;;;;0.78;100.00;100514.63;7393046;19;20486;-70
2024/01/06 10:31:15;;;;;;;116.97;47.88;;;;;;;0.79;100.00;100512.06;7395174;19;20023;-70
2024/01/06 10:33:43;;;;;;;114.22;48.28;;;;;;;0.79;100.00;100513.78;7393599;19;20011;-70
2024/01/06 10:36:12;;;;;;;130.30;52.90;;;;;;;0.79;100.00;100517.22;7394492;19;20015;-70
2024/01/06 10:38:42;;;;;;;111.35;46.03;;;;;;;0.80;100.00;100513.81;7394446;19;20027;-69
2024/01/06 10:41:19;;;;;;;111.65;46.10;;;;;;;0.77;100.00;100506.03;7394827;19;20163;-70
2024/01/06 10:43:53;;;;;;;112.65;48.03;;;;;;;0.79;100.00;100517.22;7392681;19;20489;-70
2024/01/06 10:46:22;;;;;;;107.28;44.72;;;;;;;0.79;100.00;100516.38;7393675;19;20419;-69
2024/01/06 10:48:52;;;;;;;114.10;47.38;;;;;;;0.78;100.00;100518.09;7392175;19;20078;-68
2024/01/06 10:51:22;;;;;;;119.65;48.60;;;;;;;0.79;100.00;100522.41;7393898;19;20023;-70
2024/01/06 10:53:52;;;;;;;112.80;46.17;;;;;;;0.80;100.00;100524.13;7392689;19;20019;-70
2024/01/06 10:56:21;;;;;;;105.80;43.75;;;;;;;0.82;100.00;100526.75;7394051;19;20035;-70
2024/01/06 10:58:52;;;;;;;106.30;44.13;;;;;;;0.81;100.00;100523.31;7393779;19;20082;-70
2024/01/06 11:01:24;;;;;;;108.38;45.17;;;;;;;0.80;100.00;100524.13;7394450;19;20086;-71
2024/01/06 11:03:54;;;;;;;93.65;43.28;;;;;;;0.79;100.00;100531.88;7392264;19;20021;-71
2024/01/06 11:06:23;;;;;;;101.85;44.15;;;;;;;0.78;100.00;100518.09;7393804;19;20027;-71
2024/01/06 11:08:55;;;;;;;108.10;45.50;;;;;;;0.79;100.00;100522.41;7392244;19;20078;-70
2024/01/06 11:11:24;;;;;;;105.93;44.30;;;;;;;0.79;100.00;100522.41;7393992;19;20078;-70
2024/01/06 11:13:56;;;;;;;109.95;46.67;;;;;;;0.81;100.00;100527.63;7392368;19;20412;-71
2024/01/06 11:16:43;;;;;;;111.45;48.92;;;;;;;0.79;100.00;100524.97;7400842;19;20003;-71